Time;durP1;ratioP1;P1;durP2;ratioP2;P2;SDS_P1;SDS_P2;PMS_P1;PMS_P2;Temp;Humidity;BMP_temperature;BMP_pressure;BME280_temperature;BME280_humidity;BME280_pressure;Samples;Min_cycle;Max_cycle;Signal;HPM_P1;HPM_P2
2022/08/05 00:02:08;;;;;;;2.40;0.98;;;19.40;99.90;;;;;;5026657;28;20045;-76
2022/08/05 00:04:37;;;;;;;2.25;0.70;;;19.40;99.90;;;;;;5045472;28;20132;-77
2022/08/05 00:07:03;;;;;;;4.60;1.13;;;19.40;99.90;;;;;;5044968;28;20037;-76
2022/08/05 00:09:29;;;;;;;3.58;1.17;;;19.40;99.90;;;;;;5027881;28;20044;-76
2022/08/05 00:11:55;;;;;;;4.38;1.10;;;19.80;99.90;;;;;;5002460;28;20033;-76
2022/08/05 00:14:20;;;;;;;7.68;1.80;;;19.40;99.90;;;;;;5038396;28;20180;-76
2022/08/05 00:16:46;;;;;;;5.38;1.25;;;19.40;99.90;;;;;;5042515;28;20444;-77
2022/08/05 00:19:15;;;;;;;3.03;1.10;;;19.40;99.90;;;;;;5044235;28;20053;-77
2022/08/05 00:21:41;;;;;;;4.13;1.33;;;19.40;99.90;;;;;;5023499;28;20099;-77
2022/08/05 00:24:06;;;;;;;3.72;1.58;;;19.40;99.90;;;;;;5041036;28;20056;-76
2022/08/05 00:26:32;;;;;;;5.07;1.35;;;19.40;99.90;;;;;;5041133;28;20064;-76
2022/08/05 00:28:58;;;;;;;5.90;1.35;;;19.40;99.90;;;;;;5034206;28;20054;-76
2022/08/05 00:31:24;;;;;;;5.82;1.63;;;19.30;99.90;;;;;;5042383;28;20473;-76
2022/08/05 00:33:49;;;;;;;5.45;1.23;;;19.30;99.90;;;;;;5046239;28;20068;-76
2022/08/05 00:36:15;;;;;;;3.80;1.20;;;19.30;99.90;;;;;;5017262;28;20393;-77
2022/08/05 00:38:42;;;;;;;4.03;1.10;;;19.20;99.90;;;;;;5041606;28;20076;-77
2022/08/05 00:41:08;;;;;;;4.15;0.95;;;19.20;99.90;;;;;;5041472;28;20059;-77
2022/08/05 00:43:35;;;;;;;7.65;1.20;;;19.20;99.90;;;;;;5043487;28;20049;-77
2022/08/05 00:46:01;;;;;;;1.98;0.90;;;19.20;99.90;;;;;;5036026;28;20116;-76
2022/08/05 00:48:27;;;;;;;4.82;1.15;;;19.10;99.90;;;;;;5041293;28;20454;-76
2022/08/05 00:50:53;;;;;;;6.15;1.30;;;19.20;99.90;;;;;;5042112;28;20033;-76
2022/08/05 00:53:21;;;;;;;2.78;1.45;;;19.10;99.90;;;;;;5035650;28;20143;-76
2022/08/05 00:55:47;;;;;;;8.75;1.70;;;19.20;99.90;;;;;;5038561;28;20456;-76
2022/08/05 00:58:16;;;;;;;5.25;1.00;;;19.10;99.90;;;;;;5014735;28;20045;-76
2022/08/05 01:00:42;;;;;;;3.72;1.35;;;19.10;99.90;;;;;;5037050;28;20033;-76
2022/08/05 01:03:09;;;;;;;4.78;1.20;;;19.10;99.90;;;;;;5040733;28;20402;-76
2022/08/05 01:05:35;;;;;;;7.38;1.70;;;19.10;99.90;;;;;;5044024;28;20041;-76
2022/08/05 01:08:02;;;;;;;5.80;1.08;;;19.20;99.90;;;;;;5043953;28;20453;-76
2022/08/05 01:10:38;;;;;;;4.35;1.00;;;19.10;99.90;;;;;;5048361;28;20037;-76
2022/08/05 01:13:34;;;;;;;3.17;0.95;;;19.10;99.90;;;;;;5044695;28;20053;-77
2022/08/05 01:16:03;;;;;;;9.18;1.48;;;19.10;99.90;;;;;;5036756;28;20053;-76
2022/08/05 01:18:35;;;;;;;5.40;1.20;;;19.10;99.90;;;;;;5039113;28;20045;-76
2022/08/05 01:21:31;;;;;;;5.97;1.38;;;19.10;99.90;;;;;;5043685;28;20043;-76
2022/08/05 01:24:37;;;;;;;3.72;1.38;;;19.10;99.90;;;;;;5037032;28;20045;-75
2022/08/05 01:27:13;;;;;;;5.22;1.10;;;19.00;99.90;;;;;;5023743;28;20044;-76
2022/08/05 01:29:47;;;;;;;4.25;1.20;;;18.90;99.90;;;;;;5040005;28;20041;-78
2022/08/05 01:32:21;;;;;;;2.83;0.73;;;18.90;99.90;;;;;;5019932;28;20408;-77
2022/08/05 01:34:51;;;;;;;5.05;1.40;;;18.80;99.90;;;;;;5039758;28;20346;-77
2022/08/05 01:37:27;;;;;;;4.25;1.10;;;18.90;99.90;;;;;;5044525;28;20056;-77
2022/08/05 01:39:57;;;;;;;3.03;0.82;;;18.90;99.90;;;;;;5040875;28;20037;-77
2022/08/05 01:42:25;;;;;;;4.15;1.25;;;18.90;99.90;;;;;;5045059;28;20029;-76
2022/08/05 01:44:53;;;;;;;4.57;1.00;;;18.90;99.90;;;;;;5028981;28;20397;-75
2022/08/05 01:47:20;;;;;;;5.72;1.20;;;18.90;99.90;;;;;;5046611;28;20431;-76
2022/08/05 01:49:50;;;;;;;5.65;1.38;;;18.90;99.90;;;;;;5042703;28;20139;-75
2022/08/05 01:52:17;;;;;;;3.13;1.33;;;18.90;99.90;;;;;;5029112;28;20132;-76
2022/08/05 01:54:51;;;;;;;2.45;1.05;;;18.90;99.90;;;;;;5049437;28;20037;-76
2022/08/05 01:57:25;;;;;;;4.63;1.60;;;18.90;99.90;;;;;;5042436;28;20657;-76
2022/08/05 01:59:55;;;;;;;5.95;1.85;;;19.00;99.90;;;;;;5043127;28;20045;-77
2022/08/05 02:02:22;;;;;;;5.95;1.58;;;18.90;99.90;;;;;;5046903;28;20113;-76
2022/08/05 02:04:50;;;;;;;5.28;1.48;;;18.80;99.90;;;;;;5044719;28;20060;-75
2022/08/05 02:07:17;;;;;;;6.75;1.10;;;18.90;99.90;;;;;;5041192;28;20372;-77
2022/08/05 02:09:44;;;;;;;4.70;1.48;;;18.90;99.90;;;;;;5039350;28;20428;-76
2022/08/05 02:12:31;;;;;;;3.80;1.25;;;18.90;99.90;;;;;;5026252;28;20056;-76
2022/08/05 02:15:12;;;;;;;4.47;1.13;;;18.90;99.90;;;;;;5042427;28;20045;-75
2022/08/05 02:17:51;;;;;;;4.60;1.25;;;18.90;99.90;;;;;;5025911;28;20037;-76
2022/08/05 02:20:21;;;;;;;6.75;1.83;;;18.90;99.90;;;;;;5042644;28;20115;-77
2022/08/05 02:22:57;;;;;;;6.25;1.17;;;18.90;99.90;;;;;;5042448;28;20037;-76
2022/08/05 02:25:35;;;;;;;3.88;1.25;;;18.90;99.90;;;;;;5046952;28;20044;-76
2022/08/05 02:28:06;;;;;;;5.05;1.17;;;18.80;99.90;;;;;;5046161;28;20055;-78
2022/08/05 02:30:45;;;;;;;8.85;2.20;;;18.80;99.90;;;;;;5039418;28;20040;-76
2022/08/05 02:33:19;;;;;;;5.93;1.27;;;18.80;99.90;;;;;;5047265;28;20037;-75
2022/08/05 02:35:45;;;;;;;5.85;2.08;;;18.80;99.90;;;;;;5042292;28;20041;-77
2022/08/05 02:38:17;;;;;;;6.53;1.30;;;18.70;99.90;;;;;;5038908;28;20056;-76
2022/08/05 02:40:46;;;;;;;2.35;1.05;;;18.70;99.90;;;;;;5042276;28;20088;-76
2022/08/05 02:43:14;;;;;;;3.72;1.42;;;18.70;99.90;;;;;;5038442;28;20148;-75
2022/08/05 02:45:45;;;;;;;3.55;1.92;;;18.70;99.90;;;;;;5039264;28;20099;-76
2022/08/05 02:48:12;;;;;;;4.40;1.67;;;18.60;99.90;;;;;;5033917;28;20537;-75
2022/08/05 02:50:42;;;;;;;4.38;2.15;;;18.60;99.90;;;;;;5038504;28;20052;-75
2022/08/05 02:53:08;;;;;;;6.82;1.70;;;18.90;99.90;;;;;;5043138;28;20041;-76
2022/08/05 02:55:35;;;;;;;5.82;1.70;;;18.60;99.90;;;;;;5036515;28;20036;-76
2022/08/05 02:58:01;;;;;;;5.20;1.65;;;18.60;99.90;;;;;;5036207;28;20056;-76
2022/08/05 03:00:28;;;;;;;7.80;1.60;;;18.60;99.90;;;;;;5045647;28;20192;-75
2022/08/05 03:02:57;;;;;;;3.78;1.90;;;18.60;99.90;;;;;;5037682;28;20113;-77
2022/08/05 03:05:22;;;;;;;5.20;1.83;;;18.50;99.90;;;;;;5026576;28;20339;-77
2022/08/05 03:07:49;;;;;;;4.63;1.77;;;18.50;99.90;;;;;;5039184;28;20124;-76
2022/08/05 03:10:18;;;;;;;3.53;2.00;;;18.40;99.90;;;;;;5041175;28;20045;-75
2022/08/05 03:12:43;;;;;;;5.85;1.77;;;18.40;99.90;;;;;;5037564;28;20544;-76
2022/08/05 03:15:09;;;;;;;4.95;1.80;;;18.40;99.90;;;;;;5043221;28;20043;-76
2022/08/05 03:17:36;;;;;;;6.78;1.77;;;18.40;99.90;;;;;;5042816;28;20040;-76
2022/08/05 03:20:03;;;;;;;4.82;1.90;;;18.30;99.90;;;;;;5042805;28;20185;-75
2022/08/05 03:22:29;;;;;;;8.57;1.90;;;18.40;99.90;;;;;;5044783;28;20532;-76
2022/08/05 03:24:55;;;;;;;6.72;1.70;;;18.30;99.90;;;;;;5033303;28;20125;-76
2022/08/05 03:27:21;;;;;;;8.48;2.17;;;18.30;99.90;;;;;;5020384;28;20083;-76
2022/08/05 03:29:47;;;;;;;3.25;1.80;;;18.20;99.90;;;;;;5023808;28;20152;-78
2022/08/05 03:32:15;;;;;;;5.90;1.90;;;18.20;99.90;;;;;;5027494;28;20040;-77
2022/08/05 03:34:42;;;;;;;7.25;2.22;;;18.30;99.90;;;;;;5036366;28;20049;-78
2022/08/05 03:37:08;;;;;;;3.45;2.20;;;18.20;99.90;;;;;;5027730;28;20037;-75
2022/08/05 03:39:33;;;;;;;5.78;2.00;;;18.20;99.90;;;;;;5047827;28;20066;-77
2022/08/05 03:41:59;;;;;;;5.20;1.88;;;18.20;99.90;;;;;;5046734;28;20037;-77
2022/08/05 03:44:27;;;;;;;4.18;1.85;;;18.20;99.90;;;;;;5036842;28;20040;-77
2022/08/05 03:46:53;;;;;;;5.75;1.58;;;18.20;99.90;;;;;;5019865;28;20050;-76
2022/08/05 03:49:19;;;;;;;3.95;2.28;;;18.20;99.90;;;;;;5041757;28;20127;-76
2022/08/05 03:52:01;;;;;;;7.10;2.10;;;18.30;99.90;;;;;;5040996;28;20070;-76
2022/08/05 03:54:38;;;;;;;2.38;1.80;;;18.10;99.90;;;;;;5044621;28;20080;-78
2022/08/05 03:57:06;;;;;;;6.13;1.95;;;18.10;99.90;;;;;;5045786;28;20516;-77
2022/08/05 03:59:40;;;;;;;5.78;1.60;;;18.10;99.90;;;;;;5049000;28;20045;-78
2022/08/05 04:02:08;;;;;;;4.20;1.92;;;18.10;99.90;;;;;;5021177;28;20037;-77
2022/08/05 04:04:35;;;;;;;3.70;1.80;;;18.10;99.90;;;;;;5032873;28;20076;-78
2022/08/05 04:07:05;;;;;;;5.60;1.95;;;18.10;99.90;;;;;;5043712;28;20047;-77
2022/08/05 04:09:31;;;;;;;5.72;2.17;;;18.10;99.90;;;;;;5039786;28;20037;-76
2022/08/05 04:11:57;;;;;;;7.65;2.15;;;18.10;99.90;;;;;;5040904;28;20432;-77
2022/08/05 04:14:27;;;;;;;4.15;2.00;;;18.20;99.90;;;;;;5038706;28;20048;-77
2022/08/05 04:16:53;;;;;;;5.25;1.77;;;18.10;99.90;;;;;;5025311;28;20087;-77
2022/08/05 04:19:19;;;;;;;4.88;2.10;;;18.00;99.90;;;;;;5026425;28;20114;-76
2022/08/05 04:21:45;;;;;;;3.80;2.25;;;18.10;99.90;;;;;;5022532;28;20057;-76
2022/08/05 04:24:11;;;;;;;4.55;2.20;;;18.00;99.90;;;;;;5031135;28;20433;-77
2022/08/05 04:26:37;;;;;;;6.28;2.63;;;18.00;99.90;;;;;;5035088;28;20037;-77
2022/08/05 04:29:06;;;;;;;3.85;2.00;;;18.20;99.90;;;;;;5017175;28;20095;-77
2022/08/05 04:31:31;;;;;;;3.38;2.13;;;18.00;99.90;;;;;;5039406;28;20094;-76
2022/08/05 04:33:57;;;;;;;4.30;2.75;;;18.00;99.90;;;;;;5039320;28;20032;-76
2022/08/05 04:36:23;;;;;;;5.72;2.58;;;18.30;99.90;;;;;;5042601;28;20493;-78
2022/08/05 04:38:48;;;;;;;6.05;2.80;;;18.00;99.90;;;;;;5044950;28;20038;-74
2022/08/05 04:41:17;;;;;;;4.35;2.88;;;18.20;99.90;;;;;;5044891;28;20041;-77
2022/08/05 04:43:42;;;;;;;4.65;2.65;;;18.00;99.90;;;;;;5021303;28;20080;-77
2022/08/05 04:46:11;;;;;;;4.40;2.30;;;17.90;99.90;;;;;;5039610;28;20080;-76
2022/08/05 04:48:36;;;;;;;3.80;2.50;;;17.90;99.90;;;;;;5037055;28;20047;-75
2022/08/05 04:51:05;;;;;;;6.63;3.35;;;17.90;99.90;;;;;;5042013;28;20033;-75
2022/08/05 04:53:31;;;;;;;6.97;3.97;;;17.90;99.90;;;;;;5020996;28;20052;-77
2022/08/05 04:55:57;;;;;;;5.18;2.50;;;17.90;99.90;;;;;;5038962;28;20041;-76
2022/08/05 04:58:22;;;;;;;7.90;2.33;;;17.90;99.90;;;;;;5043257;28;20516;-76
2022/08/05 05:00:48;;;;;;;4.65;2.35;;;17.90;99.90;;;;;;5014455;28;20045;-77
2022/08/05 05:03:14;;;;;;;4.70;2.30;;;17.90;99.90;;;;;;5034705;28;20145;-76
2022/08/05 05:05:41;;;;;;;4.85;2.38;;;17.90;99.90;;;;;;5040809;28;20037;-75
2022/08/05 05:08:09;;;;;;;6.13;2.53;;;17.80;99.90;;;;;;5043088;28;20048;-75
2022/08/05 05:10:43;;;;;;;5.32;2.30;;;17.80;99.90;;;;;;5024086;28;20041;-74
2022/08/05 05:13:13;;;;;;;7.38;2.38;;;17.80;99.90;;;;;;5040611;28;20046;-79
2022/08/05 05:15:42;;;;;;;5.70;2.17;;;17.80;99.90;;;;;;5020750;28;20535;-77
2022/08/05 05:18:08;;;;;;;4.88;2.00;;;17.80;99.90;;;;;;5032113;28;20080;-76
2022/08/05 05:20:34;;;;;;;6.00;2.50;;;18.00;99.90;;;;;;5035642;28;20041;-76
2022/08/05 05:23:03;;;;;;;3.00;2.13;;;17.40;99.90;;;;;;5034042;28;20053;-74
2022/08/05 05:25:33;;;;;;;3.25;2.45;;;17.80;99.90;;;;;;5025638;28;20075;-75
2022/08/05 05:27:59;;;;;;;6.13;2.75;;;17.40;99.90;;;;;;5024845;28;20045;-75
2022/08/05 05:30:27;;;;;;;4.28;2.35;;;17.70;99.90;;;;;;5039316;28;20392;-76
2022/08/05 05:32:53;;;;;;;6.18;5.22;;;17.70;99.90;;;;;;5030626;28;20117;-76
2022/08/05 05:35:21;;;;;;;12.13;8.93;;;17.60;99.90;;;;;;5042784;28;20194;-76
2022/08/05 05:37:59;;;;;;;7.82;4.97;;;17.60;99.90;;;;;;5036493;28;20454;-77
2022/08/05 05:40:25;;;;;;;6.43;2.83;;;17.50;99.90;;;;;;5038381;28;20050;-76
2022/08/05 05:42:54;;;;;;;4.68;2.00;;;17.50;99.90;;;;;;5038208;28;20044;-76
2022/08/05 05:45:19;;;;;;;3.60;2.00;;;17.50;99.90;;;;;;5022273;28;20053;-77
2022/08/05 05:47:45;;;;;;;6.47;2.47;;;17.50;99.90;;;;;;5034780;28;20068;-76
2022/08/05 05:50:16;;;;;;;4.15;2.35;;;17.50;99.90;;;;;;5040125;28;20328;-77
2022/08/05 05:52:42;;;;;;;3.42;1.85;;;17.50;99.90;;;;;;5034222;28;20088;-78
2022/08/05 05:55:11;;;;;;;6.68;2.25;;;17.80;99.90;;;;;;5048416;28;20095;-76
2022/08/05 05:57:38;;;;;;;4.60;2.22;;;17.50;99.90;;;;;;5023895;28;20388;-76
2022/08/05 06:00:05;;;;;;;2.70;1.90;;;17.60;99.90;;;;;;5023214;28;20451;-78
2022/08/05 06:02:31;;;;;;;1.92;1.83;;;17.60;99.90;;;;;;5033470;28;20044;-76
2022/08/05 06:04:56;;;;;;;2.80;2.22;;;17.60;99.90;;;;;;5039770;28;20045;-77
2022/08/05 06:07:22;;;;;;;8.15;1.98;;;17.60;99.90;;;;;;5050008;28;20053;-77
2022/08/05 06:09:48;;;;;;;3.05;2.08;;;17.60;99.90;;;;;;5038236;28;20072;-78
2022/08/05 06:12:16;;;;;;;7.90;6.95;;;17.60;99.90;;;;;;5042951;28;20040;-76
2022/08/05 06:14:43;;;;;;;9.70;5.35;;;17.60;99.90;;;;;;5026412;28;20111;-77
2022/08/05 06:17:12;;;;;;;5.68;3.13;;;17.60;99.90;;;;;;5047810;28;20077;-77
2022/08/05 06:19:38;;;;;;;7.78;2.85;;;17.50;99.90;;;;;;5028024;28;20043;-75
2022/08/05 06:22:05;;;;;;;4.72;1.80;;;17.50;99.90;;;;;;5044752;28;20116;-77
2022/08/05 06:24:31;;;;;;;4.65;2.03;;;17.50;99.90;;;;;;5042466;28;20045;-76
2022/08/05 06:26:57;;;;;;;4.38;1.63;;;17.70;99.90;;;;;;5038546;28;20033;-77
2022/08/05 06:29:22;;;;;;;1.80;1.40;;;17.60;99.90;;;;;;5044587;28;20059;-75
2022/08/05 06:31:48;;;;;;;3.58;1.67;;;17.80;99.90;;;;;;5038992;28;20038;-77
2022/08/05 06:34:17;;;;;;;6.20;1.90;;;17.70;99.90;;;;;;5046538;28;20037;-77
2022/08/05 06:36:42;;;;;;;2.30;1.13;;;17.70;99.90;;;;;;5039259;28;20069;-76
2022/08/05 06:39:08;;;;;;;8.00;1.42;;;17.70;99.90;;;;;;5024267;28;20467;-76
2022/08/05 06:41:34;;;;;;;3.47;1.00;;;17.70;99.90;;;;;;5041136;28;20041;-77
2022/08/05 06:43:59;;;;;;;2.90;1.00;;;17.80;99.90;;;;;;5047093;28;20536;-75
2022/08/05 06:46:25;;;;;;;1.85;0.70;;;17.80;99.90;;;;;;5043913;28;20045;-77
2022/08/05 06:48:51;;;;;;;3.72;1.30;;;17.90;99.90;;;;;;5039532;28;20516;-76
2022/08/05 06:51:16;;;;;;;5.90;1.60;;;17.80;99.90;;;;;;5043737;28;20085;-77
2022/08/05 06:53:42;;;;;;;2.88;0.88;;;18.00;99.90;;;;;;5044765;28;20041;-78
2022/08/05 06:56:08;;;;;;;2.78;0.85;;;18.00;99.90;;;;;;4337066;28;10000728;-78
2022/08/05 06:58:33;;;;;;;6.13;0.70;;;18.00;99.90;;;;;;5038845;28;20501;-78
2022/08/05 07:01:00;;;;;;;3.25;0.82;;;18.00;99.90;;;;;;5025217;28;20098;-77
2022/08/05 07:03:27;;;;;;;0.60;0.60;;;17.90;99.90;;;;;;5022979;28;20655;-80
2022/08/05 07:05:54;;;;;;;2.72;0.80;;;18.10;99.90;;;;;;5043480;28;20052;-80
2022/08/05 07:08:21;;;;;;;1.70;0.38;;;18.10;99.90;;;;;;5047468;28;20037;-81
2022/08/05 07:10:47;;;;;;;3.85;0.55;;;18.50;99.90;;;;;;5039632;28;20087;-80
2022/08/05 07:18:42;;;;;;;;;;;18.40;99.90;;;;;;5029620;28;20053;-78
2022/08/05 07:21:08;;;;;;;1.75;0.20;;;18.30;99.90;;;;;;5043253;28;19974;-78
2022/08/05 07:23:33;;;;;;;0.63;0.20;;;18.30;99.90;;;;;;5021648;28;20091;-76
2022/08/05 07:25:59;;;;;;;4.50;0.65;;;18.30;99.90;;;;;;5040434;28;20068;-77
2022/08/05 07:28:26;;;;;;;2.25;0.25;;;18.30;99.90;;;;;;5042469;28;20116;-78
2022/08/05 07:30:51;;;;;;;1.30;0.28;;;18.40;99.90;;;;;;5038801;28;20047;-77
2022/08/05 07:33:19;;;;;;;2.10;0.20;;;18.40;99.90;;;;;;5041397;28;20138;-78
2022/08/05 07:35:45;;;;;;;5.45;0.70;;;18.50;99.90;;;;;;5034055;28;20432;-78
2022/08/05 07:38:11;;;;;;;1.77;0.50;;;18.40;99.90;;;;;;5040313;28;20663;-77
2022/08/05 07:40:36;;;;;;;0.40;0.20;;;18.50;99.90;;;;;;5047076;28;20127;-77
2022/08/05 07:43:02;;;;;;;2.47;0.77;;;18.60;99.90;;;;;;5042509;28;20131;-77
2022/08/05 07:45:28;;;;;;;1.55;0.20;;;19.10;99.90;;;;;;5023452;28;20406;-77
2022/08/05 07:47:53;;;;;;;1.33;0.38;;;18.90;99.90;;;;;;5027374;28;21871;-76
2022/08/05 07:50:19;;;;;;;1.70;0.20;;;18.70;99.90;;;;;;5026229;28;20049;-76
2022/08/05 07:52:45;;;;;;;1.60;0.25;;;18.70;99.90;;;;;;5038514;28;20048;-75
2022/08/05 07:55:11;;;;;;;2.90;0.65;;;18.70;99.90;;;;;;5021743;28;20048;-76
2022/08/05 07:57:37;;;;;;;1.25;0.30;;;18.80;99.90;;;;;;5039009;28;20400;-76
2022/08/05 08:00:07;;;;;;;1.27;0.20;;;18.70;99.90;;;;;;5036761;28;20507;-76
2022/08/05 08:02:35;;;;;;;3.95;0.50;;;18.80;99.90;;;;;;5043452;28;20033;-75
2022/08/05 08:05:01;;;;;;;3.10;0.38;;;18.80;99.90;;;;;;5041318;28;20084;-76
2022/08/05 08:07:27;;;;;;;2.05;0.45;;;18.80;99.90;;;;;;5040186;28;20122;-78
2022/08/05 08:09:59;;;;;;;1.60;0.30;;;18.90;99.90;;;;;;5028768;28;20190;-79
2022/08/05 08:12:25;;;;;;;1.38;0.20;;;18.90;99.90;;;;;;5038556;28;20049;-77
2022/08/05 08:14:51;;;;;;;3.95;0.20;;;19.00;99.90;;;;;;5041142;28;20775;-78
2022/08/05 08:17:17;;;;;;;3.65;0.50;;;19.00;99.90;;;;;;5048587;28;20048;-77
2022/08/05 08:19:47;;;;;;;4.18;0.40;;;19.50;99.90;;;;;;5041750;28;20037;-79
2022/08/05 08:22:13;;;;;;;1.30;0.30;;;19.20;99.90;;;;;;5039409;28;20037;-76
2022/08/05 08:24:38;;;;;;;2.42;0.35;;;19.20;99.90;;;;;;5044956;28;20101;-77
2022/08/05 08:27:08;;;;;;;3.60;0.30;;;19.30;99.90;;;;;;5024961;28;20048;-77
2022/08/05 08:29:34;;;;;;;2.40;0.30;;;19.50;99.90;;;;;;5043479;28;20034;-77
2022/08/05 08:32:00;;;;;;;8.27;0.50;;;19.30;99.90;;;;;;5046996;28;20059;-75
2022/08/05 08:34:26;;;;;;;1.42;0.43;;;19.20;99.90;;;;;;5023568;28;20045;-75
2022/08/05 08:36:53;;;;;;;4.07;0.65;;;19.20;99.90;;;;;;5042275;28;20136;-75
2022/08/05 08:39:20;;;;;;;3.85;0.38;;;19.20;99.90;;;;;;5036958;28;20274;-75
2022/08/05 08:41:51;;;;;;;4.28;0.50;;;19.20;99.90;;;;;;5041829;28;20033;-78
2022/08/05 08:44:18;;;;;;;7.78;0.55;;;19.30;99.90;;;;;;5047299;28;20095;-77
2022/08/05 08:46:47;;;;;;;2.10;0.17;;;19.80;99.90;;;;;;5038000;28;20045;-80
2022/08/05 08:49:14;;;;;;;1.65;0.22;;;19.40;99.90;;;;;;5040108;28;20038;-78
2022/08/05 08:51:45;;;;;;;1.85;0.20;;;19.40;99.90;;;;;;5044978;28;20049;-75
2022/08/05 08:54:11;;;;;;;1.42;0.17;;;19.40;99.90;;;;;;5036596;28;20438;-75
2022/08/05 08:56:45;;;;;;;1.98;0.75;;;19.50;99.90;;;;;;5040632;28;20095;-76
2022/08/05 08:59:11;;;;;;;2.60;0.30;;;19.60;99.90;;;;;;5044646;28;20127;-80
2022/08/05 09:01:38;;;;;;;2.88;0.40;;;19.60;99.90;;;;;;5007911;28;20124;-80
2022/08/05 09:04:04;;;;;;;1.70;0.22;;;19.80;99.90;;;;;;5035202;28;20059;-81
2022/08/05 09:06:30;;;;;;;2.00;0.30;;;19.70;99.90;;;;;;5034361;28;20485;-81
2022/08/05 09:09:00;;;;;;;1.67;0.10;;;19.70;99.90;;;;;;4999462;28;20045;-80
2022/08/05 09:11:26;;;;;;;0.77;0.20;;;19.70;99.90;;;;;;5021442;28;20150;-81
2022/08/05 09:13:54;;;;;;;0.82;0.22;;;19.70;99.90;;;;;;5038218;28;20412;-76
2022/08/05 09:16:19;;;;;;;1.83;0.30;;;19.70;99.90;;;;;;5043011;28;20119;-80
2022/08/05 09:18:45;;;;;;;2.50;0.30;;;19.70;99.90;;;;;;5042623;28;20314;-81
2022/08/05 09:21:11;;;;;;;3.30;0.35;;;19.70;99.90;;;;;;5038967;28;20338;-85
2022/08/05 09:23:36;;;;;;;2.15;0.30;;;19.60;99.90;;;;;;5024506;28;20119;-82
2022/08/05 09:26:11;;;;;;;3.65;0.63;;;19.80;99.90;;;;;;5040838;28;20033;-77
2022/08/05 09:28:38;;;;;;;3.22;0.10;;;19.70;99.90;;;;;;5049730;28;20036;-77
2022/08/05 09:31:14;;;;;;;3.25;0.40;;;19.80;99.90;;;;;;5044406;28;20107;-79
2022/08/05 09:33:57;;;;;;;6.97;0.68;;;19.80;99.90;;;;;;5031296;28;20044;-75
2022/08/05 09:36:24;;;;;;;0.90;0.20;;;19.90;99.90;;;;;;5043396;28;20053;-78
2022/08/05 09:39:09;;;;;;;0.93;0.10;;;19.90;99.90;;;;;;5049882;28;20037;-80
2022/08/05 09:41:57;;;;;;;3.08;0.28;;;19.90;99.90;;;;;;5046921;28;20052;-81
2022/08/05 09:44:41;;;;;;;2.33;0.40;;;20.00;99.90;;;;;;5039056;28;20473;-79
2022/08/05 09:47:08;;;;;;;2.58;0.30;;;20.00;99.90;;;;;;5025254;28;20083;-77
2022/08/05 09:49:34;;;;;;;2.08;0.20;;;20.00;99.90;;;;;;5041493;28;20061;-83
2022/08/05 09:52:20;;;;;;;1.88;0.10;;;20.00;99.90;;;;;;5044101;28;20438;-80
2022/08/05 09:54:54;;;;;;;1.45;0.10;;;20.00;99.90;;;;;;5023025;28;20042;-80
2022/08/05 09:57:42;;;;;;;1.20;0.20;;;20.10;99.90;;;;;;5045100;28;20108;-78
2022/08/05 10:00:14;;;;;;;2.13;0.20;;;20.10;99.90;;;;;;5042187;28;20037;-79
2022/08/05 10:02:47;;;;;;;0.75;0.15;;;20.10;99.90;;;;;;5030891;28;20458;-81
2022/08/05 10:05:13;;;;;;;1.30;0.10;;;20.20;99.90;;;;;;5005276;28;20099;-78
2022/08/05 10:07:57;;;;;;;4.10;0.28;;;20.20;99.90;;;;;;5014427;28;20048;-77
2022/08/05 10:10:26;;;;;;;3.20;0.10;;;20.20;99.90;;;;;;5037608;28;20741;-80
2022/08/05 10:12:55;;;;;;;1.75;0.20;;;20.20;99.90;;;;;;5047933;28;20070;-87
2022/08/05 10:15:31;;;;;;;1.90;0.10;;;20.10;99.90;;;;;;5014835;28;20053;-92
2022/08/05 10:18:20;;;;;;;3.33;0.10;;;20.10;96.90;;;;;;5043487;28;20041;-80
2022/08/05 10:20:49;;;;;;;1.08;0.45;;;20.10;97.70;;;;;;5039479;28;20038;-77
2022/08/05 10:23:18;;;;;;;0.75;0.10;;;20.10;98.60;;;;;;5039371;28;20517;-77
2022/08/05 10:25:44;;;;;;;3.20;0.10;;;20.10;98.80;;;;;;5043535;28;20527;-78
2022/08/05 10:28:10;;;;;;;1.17;0.00;;;20.20;99.10;;;;;;5046255;28;20073;-80
2022/08/05 10:30:37;;;;;;;1.52;0.43;;;20.30;98.00;;;;;;5043942;28;20044;-80
2022/08/05 10:33:05;;;;;;;0.22;0.00;;;20.30;97.40;;;;;;5045772;28;20095;-78
2022/08/05 10:35:32;;;;;;;0.45;0.10;;;20.30;96.40;;;;;;5022686;28;20530;-78
2022/08/05 10:38:01;;;;;;;2.25;0.00;;;20.30;94.80;;;;;;5040106;28;20037;-78
2022/08/05 10:40:36;;;;;;;0.10;0.00;;;20.40;95.40;;;;;;5006751;28;20094;-76
2022/08/05 10:43:11;;;;;;;1.35;0.20;;;20.40;94.90;;;;;;5043955;28;20041;-80
2022/08/05 10:45:36;;;;;;;0.50;0.10;;;20.40;94.00;;;;;;5042776;28;20504;-82
2022/08/05 10:48:30;;;;;;;2.92;0.17;;;21.10;94.80;;;;;;5049889;28;20106;-82
2022/08/05 10:51:19;;;;;;;0.40;0.10;;;20.50;93.20;;;;;;5028699;28;20061;-77
2022/08/05 10:54:05;;;;;;;0.50;0.08;;;20.50;91.80;;;;;;5039425;28;20348;-78
2022/08/05 10:56:54;;;;;;;0.30;0.10;;;20.50;92.60;;;;;;5043891;28;20118;-78
2022/08/05 10:59:29;;;;;;;1.05;0.00;;;20.70;92.40;;;;;;5042775;28;20599;-78
2022/08/05 11:02:16;;;;;;;0.93;0.05;;;20.60;91.40;;;;;;5038215;28;20052;-77
2022/08/05 11:04:46;;;;;;;0.70;0.10;;;20.50;91.50;;;;;;5040456;28;20100;-78
2022/08/05 11:07:17;;;;;;;0.10;0.00;;;20.50;92.40;;;;;;5047950;28;20515;-79
2022/08/05 11:09:43;;;;;;;1.05;0.00;;;20.60;93.00;;;;;;5042030;28;20033;-76
2022/08/05 11:12:37;;;;;;;3.50;0.20;;;20.60;93.50;;;;;;5043177;28;20043;-78
2022/08/05 11:15:15;;;;;;;1.92;0.30;;;20.70;93.40;;;;;;5043053;28;20048;-77
2022/08/05 11:17:49;;;;;;;1.08;0.10;;;20.80;93.50;;;;;;5044666;28;20037;-79
2022/08/05 11:20:33;;;;;;;1.58;0.10;;;20.80;93.90;;;;;;5046868;28;20369;-79
2022/08/05 11:22:59;;;;;;;0.60;0.10;;;21.00;94.00;;;;;;5040493;28;20037;-76
2022/08/05 11:25:37;;;;;;;0.45;0.00;;;20.90;94.10;;;;;;5046041;28;20068;-78
2022/08/05 11:28:11;;;;;;;1.92;0.20;;;21.00;93.50;;;;;;5021093;28;20127;-76
2022/08/05 11:30:56;;;;;;;0.32;0.00;;;20.60;92.30;;;;;;5017885;28;20044;-74
2022/08/05 11:33:35;;;;;;;;;;;21.00;92.90;;;;;;5034927;28;20054;-79
2022/08/05 11:36:09;;;;;;;4.20;0.40;;;20.90;93.40;;;;;;5038344;28;20062;-80
2022/08/05 11:38:37;;;;;;;;;;;21.00;93.90;;;;;;5041615;28;20469;-78
2022/08/05 11:41:18;;;;;;;1.02;0.10;;;21.20;94.30;;;;;;5043842;28;19924;-77
2022/08/05 11:43:53;;;;;;;4.55;0.20;;;21.20;93.50;;;;;;5033349;28;20079;-80
2022/08/05 11:46:34;;;;;;;2.53;0.13;;;21.20;93.10;;;;;;5050466;28;20072;-78
2022/08/05 11:49:01;;;;;;;4.68;0.20;;;21.20;93.20;;;;;;5046092;28;20036;-79
2022/08/05 11:51:28;;;;;;;0.40;0.03;;;21.40;93.50;;;;;;5017177;28;20049;-79
2022/08/05 11:53:59;;;;;;;2.53;0.20;;;21.30;93.50;;;;;;5025968;28;20072;-79
2022/08/05 11:56:43;;;;;;;3.30;0.40;;;21.30;94.40;;;;;;5036565;28;20505;-80
2022/08/05 11:59:16;;;;;;;;;;;21.30;95.20;;;;;;5040049;28;20476;-80
2022/08/05 12:02:09;;;;;;;2.03;0.28;;;21.40;96.00;;;;;;5047863;28;19929;-80
2022/08/05 12:04:47;;;;;;;3.33;0.20;;;21.30;96.50;;;;;;5043197;28;20053;-79
2022/08/05 12:07:16;;;;;;;1.25;0.20;;;21.30;96.80;;;;;;5040053;28;20038;-79
2022/08/05 12:09:46;;;;;;;12.73;0.45;;;21.70;96.70;;;;;;5042342;28;20033;-78
2022/08/05 12:12:19;;;;;;;1.85;0.10;;;21.30;96.70;;;;;;5041467;28;20041;-77
2022/08/05 12:14:45;;;;;;;2.50;0.30;;;21.50;96.60;;;;;;5037016;28;20562;-82
2022/08/05 12:17:15;;;;;;;5.20;0.30;;;21.40;96.30;;;;;;5040775;28;20037;-83
2022/08/05 12:19:48;;;;;;;4.40;0.15;;;21.50;96.40;;;;;;5040136;28;20603;-82
2022/08/05 12:22:18;;;;;;;2.33;0.40;;;21.50;96.40;;;;;;5040748;28;20037;-83
2022/08/05 12:24:47;;;;;;;1.48;0.05;;;21.40;96.10;;;;;;5042148;28;20434;-80
2022/08/05 12:27:24;;;;;;;0.98;0.10;;;21.30;96.20;;;;;;5044610;28;20041;-83
2022/08/05 12:30:05;;;;;;;1.58;0.13;;;21.20;96.40;;;;;;5035205;28;20030;-78
2022/08/05 12:32:34;;;;;;;2.92;0.57;;;20.70;96.50;;;;;;5043337;28;20118;-78
2022/08/05 12:35:06;;;;;;;2.80;0.43;;;21.10;96.80;;;;;;5008971;28;20041;-77
2022/08/05 12:37:33;;;;;;;1.45;0.20;;;21.00;97.00;;;;;;5031083;28;20049;-79
2022/08/05 12:39:59;;;;;;;2.25;0.22;;;21.80;97.40;;;;;;5037111;28;20036;-76
2022/08/05 12:42:28;;;;;;;1.23;0.35;;;21.10;97.30;;;;;;5046115;28;20039;-78
2022/08/05 12:45:17;;;;;;;3.15;0.20;;;21.00;97.10;;;;;;4679856;28;10000098;-77
2022/08/05 12:47:46;;;;;;;1.13;0.20;;;20.90;96.90;;;;;;5035717;28;20071;-75
2022/08/05 12:50:38;;;;;;;2.95;0.20;;;21.40;96.60;;;;;;5036677;28;20403;-77
2022/08/05 12:53:04;;;;;;;2.53;0.45;;;20.80;96.50;;;;;;5024533;28;20444;-75
2022/08/05 12:55:30;;;;;;;0.47;0.00;;;20.80;96.20;;;;;;5018600;28;20143;-76
2022/08/05 12:57:58;;;;;;;3.38;0.30;;;20.60;96.00;;;;;;5037475;28;20432;-76
2022/08/05 13:00:26;;;;;;;2.85;0.08;;;20.60;96.70;;;;;;5034676;28;20045;-85
2022/08/05 13:02:53;;;;;;;0.73;0.17;;;20.60;96.90;;;;;;4997171;28;20392;-88
2022/08/05 13:05:22;;;;;;;2.05;0.25;;;20.70;96.40;;;;;;5044595;28;20084;-81
2022/08/05 13:07:48;;;;;;;0.45;0.00;;;20.60;94.30;;;;;;5018251;28;20404;-78